Time;durP1;ratioP1;P1;durP2;ratioP2;P2;SDS_P1;SDS_P2;PMS_P1;PMS_P2;Temp;Humidity;BMP_temperature;BMP_pressure;BME280_temperature;BME280_humidity;BME280_pressure;Samples;Min_cycle;Max_cycle;Signal;HPM_P1;HPM_P2
2021/05/23 00:00:58;;;;;;;5.03;2.70;;;23.00;49.30;;;;;;6148704;23;20387;-83
2021/05/23 00:10:34;;;;;;;5.90;2.47;;;23.00;49.20;;;;;;6145923;23;20415;-83
2021/05/23 00:13:37;;;;;;;;;;;;;;;;;;;;;
2021/05/23 00:23:09;;;;;;;7.90;3.00;;;23.00;49.20;;;;;;6167447;23;20495;-82
2021/05/23 00:26:01;;;;;;;2.77;2.03;;;23.00;49.30;;;;;;6174699;23;20392;-84
2021/05/23 00:41:42;;;;;;;4.97;2.93;;;23.00;49.20;;;;;;6328146;22;20339;-82
2021/05/23 00:44:44;;;;;;;4.77;2.40;;;23.00;48.80;;;;;;6301262;22;20948;-82
2021/05/23 00:47:38;;;;;;;5.87;2.40;;;22.90;49.20;;;;;;6289974;22;20410;-83
2021/05/23 00:50:41;;;;;;;4.90;2.97;;;23.00;49.30;;;;;;6329063;22;20383;-83
2021/05/23 00:53:13;;;;;;;4.97;2.63;;;23.00;49.40;;;;;;6206109;23;20386;-83
2021/05/23 00:55:42;;;;;;;3.87;2.00;;;22.90;49.30;;;;;;6233023;23;20354;-83
2021/05/23 01:02:11;;;;;;;4.70;2.80;;;23.00;49.30;;;;;;6224104;23;20382;-82
2021/05/23 01:05:27;;;;;;;4.97;2.60;;;22.90;49.20;;;;;;6174151;23;20376;-82
2021/05/23 01:08:19;;;;;;;5.43;3.20;;;22.90;49.20;;;;;;6142006;23;20431;-83
2021/05/23 01:11:56;;;;;;;3.90;2.83;;;23.00;49.30;;;;;;6174391;23;20380;-83
2021/05/23 01:14:51;;;;;;;5.43;2.20;;;23.00;49.30;;;;;;6072427;23;20381;-84
2021/05/23 01:17:47;;;;;;;4.40;2.73;;;23.00;49.40;;;;;;6113292;23;20370;-84
2021/05/23 01:20:51;;;;;;;3.93;2.07;;;22.90;49.30;;;;;;6106146;23;20374;-84
2021/05/23 01:24:03;;;;;;;3.80;2.63;;;22.90;49.90;;;;;;6114145;23;20433;-84
2021/05/23 01:26:53;;;;;;;3.90;2.30;;;22.90;49.30;;;;;;6027755;23;20384;-84
2021/05/23 01:29:25;;;;;;;5.43;2.83;;;22.90;49.40;;;;;;6027729;23;20440;-84
2021/05/23 01:42:44;;;;;;;5.77;2.03;;;22.90;49.40;;;;;;5999509;24;20400;-82
2021/05/23 01:45:47;;;;;;;5.80;2.63;;;22.90;49.40;;;;;;6000326;24;20386;-82
2021/05/23 01:48:46;;;;;;;5.53;2.37;;;22.90;49.50;;;;;;5999498;24;20389;-81
2021/05/23 01:51:37;;;;;;;4.17;2.33;;;22.90;49.50;;;;;;6016905;23;20405;-82
2021/05/23 01:54:34;;;;;;;2.87;2.00;;;22.90;49.40;;;;;;6028317;23;20726;-82
2021/05/23 01:57:55;;;;;;;4.00;2.73;;;22.90;49.50;;;;;;6081483;23;20378;-82
2021/05/23 02:00:58;;;;;;;3.17;1.93;;;22.90;49.40;;;;;;6145011;23;20745;-83
2021/05/23 02:03:35;;;;;;;4.10;2.47;;;22.90;49.50;;;;;;6137244;23;20424;-83
2021/05/23 02:06:47;;;;;;;4.70;2.00;;;22.90;49.50;;;;;;6060480;23;20470;-83
2021/05/23 02:09:59;;;;;;;4.67;1.90;;;22.90;49.50;;;;;;6095089;23;20415;-83
2021/05/23 02:13:13;;;;;;;4.07;2.43;;;22.90;49.40;;;;;;6268973;22;20358;-83
2021/05/23 02:16:19;;;;;;;4.43;2.40;;;22.90;49.50;;;;;;6299750;22;20462;-84
2021/05/23 02:23:00;;;;;;;;;;;;;;;;;;;;;
2021/05/23 02:39:53;;;;;;;5.03;2.80;;;22.80;49.50;;;;;;5971483;24;20382;-83
2021/05/23 02:46:34;;;;;;;3.17;2.20;;;22.80;49.60;;;;;;5997143;24;20436;-84
2021/05/23 02:52:52;;;;;;;;;;;;;;;;;;;;;
2021/05/23 02:56:01;;;;;;;;;;;;;;;;;;;;;
2021/05/23 03:06:09;;;;;;;3.87;2.10;;;22.80;49.50;;;;;;5917161;24;20383;-82
2021/05/23 03:20:08;;;;;;;;;;;;;;;;;;;;;
2021/05/23 03:33:20;;;;;;;;;;;;;;;;;;;;;
2021/05/23 03:36:46;;;;;;;4.10;2.43;;;22.80;49.70;;;;;;6025987;23;20373;-84
2021/05/23 03:42:34;;;;;;;3.50;2.10;;;22.80;49.60;;;;;;6000368;23;20449;-85
2021/05/23 03:44:59;;;;;;;3.30;1.53;;;22.80;49.70;;;;;;6028170;23;20404;-82
2021/05/23 03:47:34;;;;;;;3.03;1.90;;;22.80;49.70;;;;;;6027009;23;20179;-83
2021/05/23 03:50:20;;;;;;;3.10;2.00;;;22.80;49.70;;;;;;5099771;28;20552;-81
2021/05/23 03:59:12;;;;;;;3.77;2.10;;;22.80;49.60;;;;;;5067587;28;20393;-82
2021/05/23 04:01:38;;;;;;;2.47;1.60;;;22.80;49.70;;;;;;5065206;28;20425;-82
2021/05/23 04:04:06;;;;;;;3.27;1.60;;;22.80;49.70;;;;;;5065926;28;20190;-83
2021/05/23 04:06:31;;;;;;;4.17;2.00;;;22.70;49.60;;;;;;5066561;28;20266;-82
2021/05/23 04:08:57;;;;;;;3.60;2.10;;;22.80;49.70;;;;;;5067155;28;20518;-82
2021/05/23 04:11:29;;;;;;;2.97;1.80;;;22.80;49.70;;;;;;5067450;28;20194;-82
2021/05/23 04:13:55;;;;;;;1.70;1.33;;;22.80;49.70;;;;;;5067380;28;20183;-83
2021/05/23 04:16:22;;;;;;;3.10;2.30;;;22.80;49.70;;;;;;5068451;28;20464;-84
2021/05/23 04:18:47;;;;;;;2.97;1.87;;;22.70;49.60;;;;;;5066755;28;20167;-84
2021/05/23 04:21:15;;;;;;;2.50;1.80;;;22.80;49.70;;;;;;5067597;28;20436;-83
2021/05/23 04:23:41;;;;;;;5.50;1.83;;;22.80;49.60;;;;;;5082708;28;20190;-82
2021/05/23 04:26:07;;;;;;;2.90;1.90;;;22.80;50.20;;;;;;5082747;28;20520;-82
2021/05/23 04:28:33;;;;;;;3.50;2.10;;;22.80;49.70;;;;;;5065998;28;20513;-82
2021/05/23 04:30:59;;;;;;;2.67;1.87;;;22.80;49.70;;;;;;5066866;28;20891;-83
2021/05/23 04:33:26;;;;;;;3.50;1.73;;;22.80;49.70;;;;;;5067541;28;20171;-83
2021/05/23 04:35:52;;;;;;;3.33;2.33;;;22.80;49.60;;;;;;5066984;28;20418;-84
2021/05/23 04:38:17;;;;;;;3.53;2.20;;;22.80;49.70;;;;;;5067963;28;20410;-83
2021/05/23 04:40:46;;;;;;;2.40;2.17;;;22.80;49.60;;;;;;5066284;28;20190;-83
2021/05/23 04:43:13;;;;;;;2.47;1.77;;;22.80;49.60;;;;;;5065984;28;20930;-83
2021/05/23 04:45:39;;;;;;;3.07;1.93;;;22.80;49.60;;;;;;5066718;28;20422;-83
2021/05/23 04:48:08;;;;;;;2.73;1.53;;;22.80;49.60;;;;;;5083434;28;20473;-83
2021/05/23 04:50:39;;;;;;;3.47;2.30;;;22.80;49.50;;;;;;5067556;28;20788;-84
2021/05/23 04:53:05;;;;;;;3.37;1.57;;;22.80;49.50;;;;;;5066374;28;20454;-83
2021/05/23 04:55:32;;;;;;;3.10;1.93;;;22.80;49.50;;;;;;5066620;28;20433;-84
2021/05/23 04:57:58;;;;;;;3.30;1.60;;;22.80;49.50;;;;;;5082903;28;20426;-84
2021/05/23 05:00:24;;;;;;;2.30;1.73;;;22.80;49.50;;;;;;5059396;28;20482;-84
2021/05/23 05:02:50;;;;;;;3.10;1.63;;;22.90;49.50;;;;;;5053447;28;20398;-82
2021/05/23 05:05:17;;;;;;;3.50;2.30;;;22.90;49.50;;;;;;5054291;28;20203;-84
2021/05/23 05:07:43;;;;;;;2.33;1.40;;;22.90;49.50;;;;;;5069155;28;20176;-83
2021/05/23 05:10:11;;;;;;;2.50;1.63;;;22.90;49.50;;;;;;5051901;28;20456;-84
2021/05/23 05:12:43;;;;;;;2.50;1.90;;;22.90;49.40;;;;;;5052104;28;20419;-83
2021/05/23 05:15:09;;;;;;;2.60;1.70;;;22.90;49.40;;;;;;5053393;28;20428;-83
2021/05/23 05:17:36;;;;;;;3.03;1.87;;;22.90;49.40;;;;;;5054175;28;20490;-82
2021/05/23 05:20:05;;;;;;;2.70;1.70;;;22.90;49.40;;;;;;5052985;28;20437;-82
2021/05/23 05:22:31;;;;;;;2.50;1.50;;;22.90;49.40;;;;;;5053216;28;20424;-82
2021/05/23 05:24:57;;;;;;;2.80;1.70;;;23.00;49.40;;;;;;5052225;28;20446;-82
2021/05/23 05:27:24;;;;;;;2.60;1.43;;;23.00;49.40;;;;;;5052951;28;20924;-82
2021/05/23 05:29:53;;;;;;;2.53;1.50;;;23.00;49.40;;;;;;5050858;28;20465;-82
2021/05/23 05:32:19;;;;;;;2.20;1.50;;;23.00;49.40;;;;;;5085090;28;20424;-82
2021/05/23 05:34:45;;;;;;;2.17;1.50;;;23.00;49.40;;;;;;5052994;28;20406;-83
2021/05/23 05:37:11;;;;;;;2.20;1.30;;;22.90;49.40;;;;;;5084842;28;20180;-83
2021/05/23 05:39:37;;;;;;;1.60;1.13;;;23.00;49.40;;;;;;5051063;28;20188;-82
2021/05/23 05:42:03;;;;;;;1.77;1.30;;;23.00;49.40;;;;;;5051030;28;20183;-83
2021/05/23 05:44:29;;;;;;;1.93;1.40;;;23.00;49.40;;;;;;5052199;28;20490;-83
2021/05/23 05:46:55;;;;;;;3.20;1.50;;;23.00;49.40;;;;;;5051712;28;20425;-83
2021/05/23 05:49:20;;;;;;;3.00;1.53;;;23.00;49.40;;;;;;5050566;28;20215;-83
2021/05/23 05:51:46;;;;;;;3.83;1.90;;;23.00;49.40;;;;;;5053075;28;20545;-83
2021/05/23 05:54:12;;;;;;;1.80;1.43;;;23.00;49.40;;;;;;5051878;28;20164;-83
2021/05/23 05:56:38;;;;;;;1.77;1.20;;;23.00;49.40;;;;;;5050993;28;20180;-83
2021/05/23 05:59:04;;;;;;;2.03;1.37;;;23.00;49.40;;;;;;5050968;28;20415;-83
2021/05/23 06:01:30;;;;;;;2.50;1.57;;;23.00;49.40;;;;;;5050794;28;20419;-84
2021/05/23 06:04:00;;;;;;;2.13;1.53;;;23.00;49.40;;;;;;5051529;28;20421;-80
2021/05/23 06:06:26;;;;;;;1.50;1.10;;;23.00;49.40;;;;;;5051447;28;20459;-81
2021/05/23 06:08:54;;;;;;;2.40;1.43;;;23.00;49.40;;;;;;5050876;28;20457;-81
2021/05/23 06:11:19;;;;;;;2.40;1.60;;;23.00;49.40;;;;;;5050611;28;20199;-81
2021/05/23 06:13:45;;;;;;;3.33;1.80;;;23.00;49.40;;;;;;5051987;28;20407;-80
2021/05/23 06:16:10;;;;;;;4.10;1.80;;;23.00;49.30;;;;;;5051931;28;20202;-81
2021/05/23 06:18:41;;;;;;;3.53;2.00;;;23.00;49.30;;;;;;5051927;28;20328;-82
2021/05/23 06:21:07;;;;;;;4.30;1.70;;;23.00;49.30;;;;;;5051108;28;20167;-82
2021/05/23 06:23:33;;;;;;;4.30;1.73;;;23.10;49.40;;;;;;5051154;28;20801;-84
2021/05/23 06:25:59;;;;;;;1.70;1.27;;;23.00;49.40;;;;;;5050588;28;20486;-84
2021/05/23 06:28:24;;;;;;;2.43;1.50;;;23.00;49.40;;;;;;5081871;28;20215;-83
2021/05/23 06:30:50;;;;;;;1.73;1.37;;;23.00;49.40;;;;;;5049651;28;20183;-82
2021/05/23 06:33:16;;;;;;;2.23;1.73;;;23.00;49.40;;;;;;5051006;28;20207;-82
2021/05/23 06:35:42;;;;;;;2.10;1.30;;;23.00;49.40;;;;;;5051410;28;20198;-82
2021/05/23 06:38:10;;;;;;;2.30;1.57;;;23.10;49.40;;;;;;5052493;28;20196;-82
2021/05/23 06:40:35;;;;;;;2.40;1.30;;;23.00;49.40;;;;;;5051394;28;20198;-82
2021/05/23 06:43:01;;;;;;;3.80;1.60;;;23.00;49.40;;;;;;5052185;28;20403;-83
2021/05/23 06:45:28;;;;;;;3.03;1.70;;;23.00;49.40;;;;;;5083821;28;20194;-82
2021/05/23 06:48:00;;;;;;;1.93;1.40;;;23.10;49.50;;;;;;5067347;28;20208;-82
2021/05/23 06:50:31;;;;;;;2.13;1.17;;;23.10;49.40;;;;;;5051169;28;20421;-82
2021/05/23 06:53:05;;;;;;;2.60;1.63;;;23.10;49.40;;;;;;5052329;28;20405;-80
2021/05/23 06:55:30;;;;;;;3.60;2.67;;;23.10;49.40;;;;;;5052308;28;20430;-81
2021/05/23 06:57:56;;;;;;;1.67;1.40;;;23.10;49.50;;;;;;5052315;28;20406;-83
2021/05/23 07:00:22;;;;;;;2.67;1.30;;;23.10;49.40;;;;;;5052281;28;20172;-82
2021/05/23 07:02:50;;;;;;;1.57;1.47;;;23.10;49.50;;;;;;5052504;28;20178;-81
2021/05/23 07:05:16;;;;;;;2.40;1.70;;;23.10;49.40;;;;;;5051168;28;20445;-82
2021/05/23 07:07:42;;;;;;;4.57;1.73;;;23.10;49.50;;;;;;5052955;28;20410;-81
2021/05/23 07:13:32;;;;;;;3.80;2.07;;;23.10;49.40;;;;;;5049296;28;20245;-83
2021/05/23 07:16:00;;;;;;;5.83;1.50;;;23.10;49.50;;;;;;5048483;28;20454;-82
2021/05/23 07:18:32;;;;;;;2.30;1.20;;;23.10;49.50;;;;;;5050580;28;20413;-82
2021/05/23 07:21:01;;;;;;;3.63;1.80;;;23.10;50.00;;;;;;5047393;28;20423;-82
2021/05/23 07:23:28;;;;;;;1.70;1.20;;;23.10;49.30;;;;;;5063067;28;20759;-83
2021/05/23 07:25:56;;;;;;;4.30;1.73;;;23.10;49.30;;;;;;5049019;28;20456;-82
2021/05/23 07:28:22;;;;;;;2.50;1.30;;;23.10;49.30;;;;;;5049237;28;20526;-83
2021/05/23 07:30:48;;;;;;;3.13;1.43;;;23.10;49.30;;;;;;5047964;28;20426;-82
2021/05/23 07:33:15;;;;;;;5.53;1.63;;;23.10;49.40;;;;;;5048638;28;20526;-81
2021/05/23 07:35:48;;;;;;;3.03;1.67;;;23.10;49.40;;;;;;5081470;28;20423;-81
2021/05/23 07:38:18;;;;;;;3.90;1.30;;;23.10;49.30;;;;;;5080341;28;20954;-82
2021/05/23 07:40:44;;;;;;;1.80;1.37;;;23.10;49.40;;;;;;5050867;28;20418;-81
2021/05/23 07:43:10;;;;;;;2.27;1.40;;;23.10;49.40;;;;;;5049964;28;20221;-82
2021/05/23 07:45:38;;;;;;;2.17;1.47;;;23.10;49.40;;;;;;5049572;28;20901;-82
2021/05/23 07:48:07;;;;;;;1.83;1.17;;;23.10;49.40;;;;;;5048356;28;20472;-80
2021/05/23 07:50:33;;;;;;;5.20;2.10;;;23.10;49.40;;;;;;5050297;28;20434;-81
2021/05/23 07:53:02;;;;;;;2.60;1.53;;;23.10;49.40;;;;;;5050390;28;20423;-82
2021/05/23 07:55:30;;;;;;;1.93;1.20;;;23.20;49.50;;;;;;5049323;28;20419;-83
2021/05/23 07:58:04;;;;;;;4.27;1.40;;;23.10;49.40;;;;;;5047429;28;20426;-83
2021/05/23 08:00:36;;;;;;;3.17;1.60;;;23.20;49.40;;;;;;5048006;28;20411;-83
2021/05/23 08:06:24;;;;;;;3.53;1.20;;;23.20;49.40;;;;;;5049418;28;20386;-83
2021/05/23 08:08:50;;;;;;;2.20;1.53;;;23.20;49.50;;;;;;5048239;28;20461;-83
2021/05/23 08:11:16;;;;;;;2.10;1.27;;;23.20;49.50;;;;;;5047531;28;20210;-83
2021/05/23 08:13:44;;;;;;;2.70;1.63;;;23.20;49.50;;;;;;5047277;28;20175;-84
2021/05/23 08:16:10;;;;;;;1.53;1.10;;;23.20;49.50;;;;;;5047633;28;20206;-83
2021/05/23 08:18:38;;;;;;;1.63;1.20;;;23.20;49.40;;;;;;5050078;28;20414;-83
2021/05/23 08:21:04;;;;;;;2.33;1.87;;;23.20;49.40;;;;;;5050474;28;20637;-83
2021/05/23 08:23:31;;;;;;;3.50;1.60;;;23.20;49.40;;;;;;5050158;28;20430;-83
2021/05/23 08:25:58;;;;;;;2.93;1.37;;;23.20;49.40;;;;;;5049477;28;20437;-84
2021/05/23 08:28:24;;;;;;;3.30;1.40;;;23.20;49.40;;;;;;5050458;28;20449;-83
2021/05/23 08:30:59;;;;;;;2.63;1.40;;;23.20;49.40;;;;;;5050225;28;20421;-81
2021/05/23 08:33:31;;;;;;;2.23;1.27;;;23.20;49.40;;;;;;5050822;28;20390;-81
2021/05/23 08:35:57;;;;;;;4.20;1.50;;;23.20;49.40;;;;;;5052109;28;20478;-81
2021/05/23 08:38:24;;;;;;;2.80;1.60;;;23.30;49.50;;;;;;5052881;28;20429;-82
2021/05/23 08:40:52;;;;;;;4.03;1.33;;;23.30;49.50;;;;;;5053308;28;20486;-82
2021/05/23 08:43:20;;;;;;;2.50;1.37;;;23.30;49.40;;;;;;5054530;28;20414;-82
2021/05/23 08:45:50;;;;;;;3.27;1.53;;;23.30;49.50;;;;;;5054066;28;20410;-89
2021/05/23 08:48:17;;;;;;;3.53;1.57;;;23.30;49.50;;;;;;5055073;28;21009;-82
2021/05/23 08:50:43;;;;;;;1.60;1.10;;;23.30;49.40;;;;;;5053881;28;20418;-81
2021/05/23 08:53:09;;;;;;;1.63;1.33;;;23.30;49.50;;;;;;5052991;28;20609;-81
2021/05/23 08:55:38;;;;;;;2.00;1.40;;;23.30;49.50;;;;;;5053215;28;20167;-80
2021/05/23 09:01:30;;;;;;;2.40;1.37;;;23.30;49.40;;;;;;5053954;28;20403;-80
2021/05/23 09:04:05;;;;;;;3.00;1.37;;;23.20;49.40;;;;;;5053820;28;20403;-80
2021/05/23 09:12:58;;;;;;;2.23;1.23;;;23.30;49.50;;;;;;5053913;28;20432;-81
2021/05/23 09:15:25;;;;;;;2.80;1.40;;;23.20;50.10;;;;;;5053054;28;20412;-81
2021/05/23 09:18:12;;;;;;;3.30;1.80;;;23.20;49.60;;;;;;5052157;28;20406;-81
2021/05/23 09:20:40;;;;;;;3.03;1.30;;;23.30;49.60;;;;;;5052967;28;20709;-80
2021/05/23 09:23:21;;;;;;;2.63;1.40;;;23.30;49.60;;;;;;5051272;28;20411;-80
2021/05/23 09:25:51;;;;;;;2.70;1.37;;;23.30;49.60;;;;;;5051556;28;20406;-81
2021/05/23 09:28:28;;;;;;;2.60;1.20;;;23.20;49.50;;;;;;5051182;28;20454;-81
2021/05/23 09:30:54;;;;;;;1.50;1.13;;;23.30;49.60;;;;;;5051462;28;20482;-81
2021/05/23 09:33:21;;;;;;;4.10;1.33;;;23.30;49.60;;;;;;5050461;28;20402;-82
2021/05/23 09:35:47;;;;;;;2.90;1.23;;;23.30;49.50;;;;;;5083779;28;20207;-82
2021/05/23 09:38:15;;;;;;;3.17;1.37;;;23.30;49.60;;;;;;5051533;28;20418;-82
2021/05/23 09:40:45;;;;;;;1.83;1.10;;;23.30;49.50;;;;;;5050970;28;20414;-82
2021/05/23 09:49:46;;;;;;;1.80;1.20;;;23.30;49.50;;;;;;5051335;28;20498;-84
2021/05/23 09:52:14;;;;;;;4.93;1.73;;;23.30;49.60;;;;;;5051136;28;20462;-84
2021/05/23 09:54:46;;;;;;;6.03;1.50;;;23.30;49.60;;;;;;5049640;28;20415;-85
2021/05/23 09:57:20;;;;;;;1.87;1.10;;;23.30;49.60;;;;;;5051785;28;20414;-85
2021/05/23 09:59:57;;;;;;;2.53;1.33;;;23.30;49.60;;;;;;5066920;28;20430;-85
2021/05/23 10:02:23;;;;;;;2.30;1.20;;;23.30;49.60;;;;;;5051371;28;20414;-85
2021/05/23 10:05:04;;;;;;;2.00;1.33;;;23.30;49.60;;;;;;5051624;28;20445;-85
2021/05/23 10:07:34;;;;;;;3.73;1.20;;;23.40;49.60;;;;;;5051199;28;20464;-85
2021/05/23 10:10:04;;;;;;;6.73;1.40;;;23.30;49.60;;;;;;5083555;28;20470;-84
2021/05/23 10:12:29;;;;;;;2.07;1.10;;;23.30;49.60;;;;;;5051937;28;20411;-83
2021/05/23 10:14:56;;;;;;;2.60;1.20;;;23.30;49.60;;;;;;5051628;28;20437;-83
2021/05/23 10:17:22;;;;;;;3.43;1.43;;;23.30;49.60;;;;;;5051937;28;20184;-83
2021/05/23 10:19:50;;;;;;;2.30;1.47;;;23.30;49.60;;;;;;5050633;28;20431;-83
2021/05/23 10:22:19;;;;;;;3.33;1.37;;;23.30;49.60;;;;;;5051037;28;20484;-83
2021/05/23 10:24:59;;;;;;;2.00;1.30;;;23.30;49.60;;;;;;5051239;28;20445;-85
2021/05/23 10:27:25;;;;;;;4.20;1.10;;;23.30;49.60;;;;;;5051188;28;20390;-85
2021/05/23 10:29:57;;;;;;;1.43;1.10;;;23.30;49.60;;;;;;5049439;28;20526;-83
2021/05/23 10:32:29;;;;;;;2.27;1.10;;;23.30;49.60;;;;;;5067080;28;20822;-83
2021/05/23 10:34:55;;;;;;;3.80;1.80;;;23.30;49.60;;;;;;5083505;28;20422;-83
2021/05/23 10:37:32;;;;;;;2.03;1.00;;;23.30;49.60;;;;;;5050759;28;20418;-83
2021/05/23 10:39:58;;;;;;;1.70;1.30;;;23.30;49.60;;;;;;5082984;28;20441;-84
2021/05/23 10:42:31;;;;;;;2.07;1.00;;;23.30;49.60;;;;;;5049174;28;20426;-84
2021/05/23 10:44:58;;;;;;;2.13;1.00;;;23.30;49.60;;;;;;5049654;28;20418;-83
2021/05/23 10:47:38;;;;;;;4.03;1.20;;;23.30;49.60;;;;;;5050478;28;20884;-84
2021/05/23 10:50:10;;;;;;;2.30;1.00;;;23.30;49.60;;;;;;5050443;28;20469;-84
2021/05/23 10:55:58;;;;;;;2.50;1.20;;;23.30;49.60;;;;;;5050449;28;20489;-83
2021/05/23 10:58:29;;;;;;;2.70;1.40;;;23.30;49.70;;;;;;5049208;28;20419;-82
2021/05/23 11:00:57;;;;;;;5.03;1.70;;;23.30;49.60;;;;;;5049075;28;20164;-83
2021/05/23 11:03:25;;;;;;;1.63;0.90;;;23.30;49.60;;;;;;5050326;28;20402;-83
2021/05/23 11:06:09;;;;;;;2.03;1.10;;;23.30;49.60;;;;;;5048432;28;20425;-84
2021/05/23 11:08:36;;;;;;;2.03;1.10;;;23.30;49.60;;;;;;5049026;28;20453;-83
2021/05/23 11:11:03;;;;;;;1.77;1.23;;;23.30;49.60;;;;;;5048617;28;20418;-84
2021/05/23 11:13:34;;;;;;;2.33;1.10;;;23.30;49.60;;;;;;5049077;28;20809;-84
2021/05/23 11:16:19;;;;;;;1.70;1.00;;;23.30;49.60;;;;;;5048971;28;20450;-84
2021/05/23 11:18:46;;;;;;;1.20;1.00;;;23.30;49.60;;;;;;5049917;28;20419;-83
2021/05/23 11:21:15;;;;;;;4.20;1.20;;;23.30;49.60;;;;;;5050585;28;20420;-84
2021/05/23 11:23:51;;;;;;;3.63;1.20;;;23.30;49.60;;;;;;5050134;28;20434;-84
2021/05/23 11:26:18;;;;;;;2.20;1.10;;;23.30;49.60;;;;;;5049864;28;20410;-84
2021/05/23 11:28:48;;;;;;;1.80;1.00;;;23.30;50.20;;;;;;5050600;28;20464;-84
2021/05/23 11:31:20;;;;;;;1.77;0.97;;;23.30;49.60;;;;;;5049140;28;20422;-84
2021/05/23 11:33:52;;;;;;;1.20;0.90;;;23.30;49.60;;;;;;5050248;28;20430;-83
2021/05/23 11:36:20;;;;;;;1.70;1.03;;;23.30;49.60;;;;;;5048222;28;20422;-83
2021/05/23 11:38:45;;;;;;;2.00;1.27;;;23.30;49.60;;;;;;5080804;28;20446;-83
2021/05/23 11:41:49;;;;;;;1.60;1.13;;;23.30;49.60;;;;;;5047808;28;20433;-83
2021/05/23 11:44:17;;;;;;;3.80;1.00;;;23.30;49.60;;;;;;5047691;28;20163;-83
2021/05/23 11:46:54;;;;;;;1.47;1.20;;;23.30;49.60;;;;;;5047050;28;20428;-84
2021/05/23 11:49:30;;;;;;;2.87;1.17;;;23.30;49.60;;;;;;5047861;28;20446;-84
2021/05/23 11:52:07;;;;;;;1.97;1.20;;;23.30;49.60;;;;;;5048092;28;20482;-85
2021/05/23 11:54:38;;;;;;;2.10;1.30;;;23.30;49.60;;;;;;5047690;28;20501;-85
2021/05/23 11:57:05;;;;;;;3.90;1.30;;;23.30;49.60;;;;;;5047712;28;20785;-86
2021/05/23 11:59:32;;;;;;;2.17;1.10;;;23.30;49.60;;;;;;5047937;28;20418;-85
2021/05/23 12:01:59;;;;;;;1.57;1.00;;;23.30;49.60;;;;;;5047201;28;20493;-85
2021/05/23 12:04:25;;;;;;;1.30;0.90;;;23.30;50.10;;;;;;5048394;28;20422;-85
2021/05/23 12:06:51;;;;;;;1.50;1.20;;;23.30;49.60;;;;;;5064425;28;20414;-86
2021/05/23 12:09:31;;;;;;;1.40;1.00;;;23.30;49.60;;;;;;5047784;28;20462;-85
2021/05/23 12:12:02;;;;;;;2.33;1.20;;;23.30;49.60;;;;;;5051571;28;20398;-86
2021/05/23 12:14:45;;;;;;;1.70;1.00;;;23.40;49.70;;;;;;5084360;28;20425;-85
2021/05/23 12:17:13;;;;;;;1.40;1.10;;;23.30;49.60;;;;;;5052527;28;20477;-83
2021/05/23 12:19:47;;;;;;;1.40;0.97;;;23.30;49.60;;;;;;5052364;28;20492;-83
2021/05/23 12:22:18;;;;;;;1.30;1.00;;;23.30;49.60;;;;;;5052217;28;20406;-82
2021/05/23 12:24:47;;;;;;;1.37;0.90;;;23.30;49.60;;;;;;5085711;28;20876;-84
2021/05/23 12:27:46;;;;;;;3.57;1.00;;;23.30;49.60;;;;;;5052190;28;20414;-84
2021/05/23 12:30:34;;;;;;;1.80;0.93;;;23.30;49.60;;;;;;5051563;28;20476;-83
2021/05/23 12:33:07;;;;;;;2.47;1.10;;;23.30;49.60;;;;;;5053284;28;20398;-84
2021/05/23 12:35:40;;;;;;;1.87;0.90;;;23.30;49.60;;;;;;5086554;28;20414;-84
2021/05/23 12:38:13;;;;;;;2.87;1.40;;;23.30;49.60;;;;;;5013537;28;20427;-83
2021/05/23 12:40:47;;;;;;;3.60;1.40;;;23.40;49.70;;;;;;5051186;28;20414;-83
2021/05/23 12:43:34;;;;;;;2.03;0.90;;;23.30;49.70;;;;;;5050633;28;20421;-89
2021/05/23 12:46:06;;;;;;;1.40;1.00;;;23.30;49.70;;;;;;5039541;28;20407;-84
2021/05/23 12:48:46;;;;;;;1.97;1.00;;;23.30;49.70;;;;;;5030677;28;20450;-88
2021/05/23 12:51:14;;;;;;;3.00;1.00;;;23.30;49.70;;;;;;5033020;28;20393;-82
2021/05/23 12:53:46;;;;;;;1.70;0.90;;;23.30;49.70;;;;;;5032596;28;20447;-83
2021/05/23 12:56:28;;;;;;;1.70;1.07;;;23.30;49.70;;;;;;5033571;28;20457;-84
2021/05/23 12:59:00;;;;;;;1.90;1.10;;;23.40;49.80;;;;;;5034215;28;20414;-84
2021/05/23 13:01:39;;;;;;;2.13;1.00;;;23.30;49.70;;;;;;5032700;28;20412;-84
2021/05/23 13:04:17;;;;;;;1.37;0.93;;;23.30;49.70;;;;;;5049050;28;20415;-84
2021/05/23 13:06:58;;;;;;;3.10;1.23;;;23.30;49.70;;;;;;5038524;28;20414;-83
2021/05/23 13:09:48;;;;;;;1.00;0.90;;;23.30;49.70;;;;;;5033435;28;20514;-81
2021/05/23 13:12:17;;;;;;;2.17;1.00;;;23.30;49.70;;;;;;5032933;28;20415;-82
2021/05/23 13:14:54;;;;;;;1.43;1.10;;;23.30;49.70;;;;;;5034701;28;20430;-82
2021/05/23 13:17:33;;;;;;;2.20;1.13;;;23.30;49.70;;;;;;5034434;28;20407;-82
2021/05/23 13:20:02;;;;;;;3.10;1.20;;;23.30;49.70;;;;;;5032273;28;20414;-83
2021/05/23 13:22:28;;;;;;;1.70;0.90;;;23.30;49.80;;;;;;5047721;28;20431;-83
2021/05/23 13:24:54;;;;;;;2.00;1.10;;;23.30;49.80;;;;;;5034464;28;20849;-83
2021/05/23 13:27:19;;;;;;;2.73;0.97;;;23.30;49.70;;;;;;5034299;28;20411;-82
2021/05/23 13:29:49;;;;;;;1.77;1.00;;;23.30;49.80;;;;;;5032964;28;20189;-83
2021/05/23 13:32:18;;;;;;;4.37;1.53;;;23.40;49.80;;;;;;5033330;28;20650;-82
2021/05/23 13:34:44;;;;;;;5.33;1.20;;;23.40;49.80;;;;;;5034801;28;20420;-82
2021/05/23 13:37:10;;;;;;;3.93;1.40;;;23.40;49.90;;;;;;5033576;28;20450;-82
2021/05/23 13:39:37;;;;;;;4.53;1.30;;;23.40;49.90;;;;;;5034489;28;21034;-82
2021/05/23 13:42:06;;;;;;;2.83;1.30;;;23.40;49.90;;;;;;5033126;28;20177;-83
2021/05/23 13:44:34;;;;;;;3.47;1.40;;;23.40;49.90;;;;;;5032787;28;20911;-83
2021/05/23 13:47:00;;;;;;;2.50;1.20;;;23.40;49.90;;;;;;5034254;28;20403;-82
2021/05/23 13:49:28;;;;;;;4.47;1.30;;;23.40;49.90;;;;;;5034321;28;20462;-83
2021/05/23 13:51:58;;;;;;;1.47;1.10;;;23.40;50.00;;;;;;5034773;28;20196;-81
2021/05/23 13:54:25;;;;;;;5.60;1.50;;;23.40;49.90;;;;;;5032457;28;20411;-82
2021/05/23 13:57:02;;;;;;;2.40;1.20;;;23.40;50.50;;;;;;5032271;28;20446;-84
2021/05/23 13:59:29;;;;;;;1.87;1.10;;;23.40;49.90;;;;;;5030564;28;20454;-85
2021/05/23 14:01:56;;;;;;;3.40;1.40;;;23.40;50.00;;;;;;5032787;28;20399;-83
2021/05/23 14:04:22;;;;;;;4.40;1.30;;;23.40;50.00;;;;;;5031390;28;20423;-83
2021/05/23 14:06:52;;;;;;;3.60;1.10;;;23.40;50.00;;;;;;5030384;28;20447;-84
2021/05/23 14:09:21;;;;;;;1.63;1.00;;;23.40;49.90;;;;;;5031124;28;20482;-85
2021/05/23 14:11:49;;;;;;;2.23;1.40;;;23.40;49.90;;;;;;5030535;28;20419;-88
2021/05/23 14:14:17;;;;;;;2.50;1.43;;;23.40;49.90;;;;;;5029770;28;20528;-83
2021/05/23 14:16:44;;;;;;;3.60;1.20;;;23.40;49.90;;;;;;5031703;28;20479;-84
2021/05/23 14:19:10;;;;;;;2.67;1.00;;;23.40;49.90;;;;;;5030920;28;20415;-84
2021/05/23 14:21:36;;;;;;;3.80;1.00;;;23.40;49.90;;;;;;5029310;28;21177;-87
2021/05/23 14:24:02;;;;;;;2.53;1.30;;;23.40;49.80;;;;;;5030744;28;20521;-80
2021/05/23 14:26:28;;;;;;;2.27;1.30;;;23.40;49.80;;;;;;5030705;28;20184;-82
2021/05/23 14:28:57;;;;;;;2.17;0.90;;;23.40;49.80;;;;;;5031903;28;20455;-86
2021/05/23 14:31:24;;;;;;;1.80;1.10;;;23.40;49.80;;;;;;5032984;28;20168;-83
2021/05/23 14:33:50;;;;;;;2.80;1.00;;;23.40;49.80;;;;;;5032558;28;20403;-82
2021/05/23 14:36:16;;;;;;;2.50;1.10;;;23.40;49.70;;;;;;5032500;28;20797;-83
2021/05/23 14:38:45;;;;;;;3.00;1.10;;;23.40;49.70;;;;;;5031830;28;20503;-82
2021/05/23 14:41:11;;;;;;;2.80;1.00;;;23.40;49.70;;;;;;5031968;28;20423;-82
2021/05/23 14:43:39;;;;;;;2.10;1.30;;;23.40;49.70;;;;;;5032058;28;20423;-82
2021/05/23 14:46:06;;;;;;;4.30;1.10;;;23.40;49.70;;;;;;5031852;28;20419;-82
2021/05/23 14:48:32;;;;;;;4.53;1.23;;;23.40;49.70;;;;;;5030526;28;20466;-82
2021/05/23 14:50:58;;;;;;;2.47;1.00;;;23.40;49.70;;;;;;5030397;28;20420;-83
2021/05/23 14:56:46;;;;;;;2.63;1.20;;;23.40;49.70;;;;;;5032945;28;20190;-80
2021/05/23 14:59:12;;;;;;;2.60;1.53;;;23.40;49.80;;;;;;5032072;28;20419;-82
2021/05/23 15:01:37;;;;;;;1.40;1.17;;;23.40;49.80;;;;;;5032237;28;20172;-84
2021/05/23 15:04:04;;;;;;;3.90;1.07;;;23.40;49.80;;;;;;5030258;28;20176;-84
2021/05/23 15:06:32;;;;;;;4.20;1.03;;;23.40;49.80;;;;;;5030317;28;20183;-84
2021/05/23 15:08:58;;;;;;;2.17;1.10;;;23.40;49.80;;;;;;5031018;28;20455;-82
2021/05/23 15:11:24;;;;;;;1.97;0.90;;;23.40;49.80;;;;;;5031901;28;20886;-83
2021/05/23 15:13:54;;;;;;;1.87;0.90;;;23.40;49.70;;;;;;5030100;28;20176;-84
2021/05/23 15:16:20;;;;;;;4.30;1.10;;;23.40;49.70;;;;;;5031172;28;20183;-84
2021/05/23 15:18:46;;;;;;;3.43;1.10;;;23.40;49.70;;;;;;5030829;28;20423;-84
2021/05/23 15:21:12;;;;;;;3.13;1.30;;;23.30;49.70;;;;;;5031172;28;20267;-84
2021/05/23 15:23:37;;;;;;;2.53;1.27;;;23.30;49.60;;;;;;5030858;28;20188;-83
2021/05/23 15:26:06;;;;;;;1.90;0.80;;;23.30;49.60;;;;;;5031332;28;20206;-83
2021/05/23 15:31:18;;;;;;;2.50;1.23;;;23.30;49.60;;;;;;5032611;28;20398;-83
2021/05/23 15:33:53;;;;;;;3.93;1.10;;;23.30;49.60;;;;;;5031897;28;20400;-82
2021/05/23 15:36:23;;;;;;;4.77;1.13;;;23.40;49.70;;;;;;5031746;28;20438;-83
2021/05/23 15:38:55;;;;;;;3.20;1.13;;;23.30;49.60;;;;;;5064246;28;20415;-82